Kendleton, Texas
Current Conditions -  °F | °C
As of 5:55 AM on Saturday 01 Nov 2014 (Local Time) from KARM Reporting Station
Clear Clear  
Wind Chill: 46°   Ceiling: Unl
Heat Index: 48°   Visibility: 10mi
Dew Point: 43°   Wind: 6mph
Humidity: 83%   Direction: 20°NNE
Pressure: 30.33"   Gusts: NA
Location:  29.45°N, 95.99°W
Report Text: KARM 011055Z AUTO 02005KT 10SM CLR 09/06 A3033 RMK AO2 T00900062
Loading
Personal Weather Stations






























Interactive Weather Map
Tropical Storm Tracking
New forecast layout! Learn more

10-Day Weather Forecast

Advertisements
Track Severe Weather on mobile